Decoded Metar for KERI (ERIE in PA, USA) (IATA:ERI) | Meteo·Mobile Aviation Weather
aviador You're here:

KERI Decoded Metar

ERIE in PA, USA
Report Time2019-04-23 14:51:00
UTC Time2019-04-23 15:54:28
Flight Rules vfr VFR
Wind180° at 11 kt
W.Decomp.*RWY 20: 10.8 kt HW 1.9 kt LCW
RWY 24: 7.1 kt HW 8.4 kt LCW
Visibility9999 m
Phenomena:Light Rain
Clouds:Scattered 065 Hf
Broken 080 Hf
Overcast 100 Hf
Expected CloudBase > 4,000 ft AGL from Temp-Dew spread
Ceiling8,000 ft
Temp19°C (ISA +5)
Dew Point09°C (52% RH)
AAT14.8°C
QNH1012 hPa
Density Alt1,558 ft
Elevation728 ft
Report Wrong Elevation
Raw Report
KERI 231451Z 18011KT 10SM -RA SCT065 BKN080 OVC100 19/09 A2987 RMK
AO2 RAB04 SLP114 P0000 60000 T01890089 56020=

Extra information for KERI:More info

Metar Taf Metar & Taf Last 4 Metars F.Rules Stats Wind Profile Meteogram Temp Stats Airport Information Weather charts Add Link Nearby VenuesMetar ALERT Operation Metar Decoded Social comments

AIRNAV info for KERI